Time;durP1;ratioP1;P1;durP2;ratioP2;P2;SDS_P1;SDS_P2;PMS_P1;PMS_P2;Temp;Humidity;BMP_temperature;BMP_pressure;BME280_temperature;BME280_humidity;BME280_pressure;Samples;Min_cycle;Max_cycle;Signal;HPM_P1;HPM_P2
2022/12/08 00:00:13;;;;;;;;;66.50;50.25;;;;;8.88;59.32;100993.28;5013215;28;45648;-63
2022/12/08 00:02:41;;;;;;;;;47.25;35.50;;;;;8.88;59.57;100994.19;5031360;28;45275;-62
2022/12/08 00:10:36;;;;;;;;;40.75;29.50;;;;;8.78;59.72;100966.28;5027448;28;45716;-62
2022/12/08 00:13:01;;;;;;;;;36.00;29.25;;;;;8.83;59.08;100958.47;5008711;28;45462;-61
2022/12/08 00:15:26;;;;;;;;;44.00;28.75;;;;;8.86;59.24;100955.94;5012122;28;45504;-63
2022/12/08 00:17:52;;;;;;;;;28.25;27.25;;;;;8.97;59.48;100967.84;5005242;28;45506;-62
2022/12/08 00:20:17;;;;;;;;;37.00;32.25;;;;;8.97;59.44;100966.97;5020793;28;45480;-60
2022/12/08 00:22:42;;;;;;;;;34.00;24.75;;;;;8.91;60.14;100948.06;5015287;28;45516;-59
2022/12/08 00:25:08;;;;;;;;;38.25;29.50;;;;;8.82;59.95;100946.88;5022683;28;46172;-64
2022/12/08 00:27:33;;;;;;;;;49.25;37.00;;;;;8.84;60.38;100947.88;5024835;28;44993;-61
2022/12/08 00:29:58;;;;;;;;;64.50;49.00;;;;;8.89;59.62;100961.34;5030717;28;45073;-60
2022/12/08 00:32:24;;;;;;;;;43.50;32.00;;;;;8.80;60.13;100945.94;5029585;28;45433;-61
2022/12/08 00:34:49;;;;;;;;;44.75;34.75;;;;;8.83;59.98;100955.81;5029690;28;47518;-60
2022/12/08 00:37:14;;;;;;;;;29.50;29.00;;;;;8.73;59.68;100962.56;5031700;28;45151;-62
2022/12/08 00:39:40;;;;;;;;;43.75;35.50;;;;;8.73;60.46;100956.28;5023734;28;44994;-61
2022/12/08 00:42:11;;;;;;;;;43.25;28.75;;;;;8.70;60.62;100945.56;5027019;28;45228;-61
2022/12/08 00:44:36;;;;;;;;;44.00;35.50;;;;;8.57;60.77;100922.88;5042534;28;46207;-60
2022/12/08 00:47:01;;;;;;;;;43.00;33.75;;;;;8.72;60.39;100950.06;5027863;28;45372;-60
2022/12/08 00:49:27;;;;;;;;;40.50;30.50;;;;;8.69;60.44;100935.72;5029483;28;45646;-61
2022/12/08 00:51:52;;;;;;;;;45.00;34.00;;;;;8.75;59.69;100946.63;5023963;28;46232;-61
2022/12/08 00:54:18;;;;;;;;;44.50;35.25;;;;;8.74;60.04;100936.81;5023671;28;45738;-63
2022/12/08 00:56:43;;;;;;;;;45.00;39.50;;;;;8.83;60.23;100934.50;5022175;28;45956;-61
2022/12/08 00:59:09;;;;;;;;;44.25;36.00;;;;;8.75;59.89;100917.31;5027218;28;45180;-60
2022/12/08 01:01:35;;;;;;;;;37.25;29.50;;;;;8.84;59.53;100928.28;5018767;28;45228;-60
2022/12/08 01:04:05;;;;;;;;;32.00;28.50;;;;;8.85;59.97;100927.44;5026502;28;45925;-61
2022/12/08 01:06:31;;;;;;;;;44.75;29.75;;;;;8.81;59.36;100917.53;5029160;28;45487;-60
2022/12/08 01:08:56;;;;;;;;;33.50;29.25;;;;;8.81;60.24;100920.19;5027460;28;44973;-59
2022/12/08 01:11:21;;;;;;;;;28.00;26.75;;;;;8.78;60.67;100912.09;5029102;28;45462;-61
2022/12/08 01:13:47;;;;;;;;;42.00;30.75;;;;;8.78;60.11;100918.34;5020526;28;45568;-62
2022/12/08 01:16:20;;;;;;;;;39.00;35.00;;;;;8.70;60.85;100898.50;5021342;28;45354;-60
2022/12/08 01:18:46;;;;;;;;;41.50;33.75;;;;;8.83;60.17;100913.19;5025799;28;44907;-60
2022/12/08 01:21:11;;;;;;;;;54.25;38.25;;;;;8.65;60.77;100886.78;5023493;28;45164;-59
2022/12/08 01:23:36;;;;;;;;;41.75;37.25;;;;;8.68;60.74;100884.22;5022916;28;45882;-59
2022/12/08 01:26:03;;;;;;;;;58.50;46.50;;;;;8.75;60.98;100904.00;5024019;28;45611;-60
2022/12/08 01:28:29;;;;;;;;;56.25;43.00;;;;;8.77;61.11;100905.84;5029953;28;45049;-60
2022/12/08 01:30:55;;;;;;;;;54.50;39.25;;;;;8.76;60.69;100903.13;5017205;28;44999;-60
2022/12/08 01:33:21;;;;;;;;;55.00;40.25;;;;;8.69;61.23;100907.34;5022145;28;46212;-62
2022/12/08 01:35:46;;;;;;;;;58.25;42.75;;;;;8.68;61.62;100902.88;5031089;28;45449;-61
2022/12/08 01:38:11;;;;;;;;;50.00;40.00;;;;;8.67;61.79;100895.72;5024515;28;45541;-62
2022/12/08 01:40:36;;;;;;;;;55.50;40.25;;;;;8.60;61.16;100902.59;5026084;28;45139;-60
2022/12/08 01:43:02;;;;;;;;;48.75;38.50;;;;;8.52;61.91;100887.19;5024163;28;46250;-61
2022/12/08 01:45:30;;;;;;;;;53.00;39.75;;;;;8.52;61.54;100885.41;5030002;28;45234;-59
2022/12/08 01:48:01;;;;;;;;;50.75;39.50;;;;;8.54;62.07;100894.34;5027529;28;45197;-60
2022/12/08 01:50:29;;;;;;;;;58.50;41.25;;;;;7.98;61.73;100803.53;5018518;28;45072;-61
2022/12/08 01:53:05;;;;;;;;;55.50;41.50;;;;;8.42;61.85;100902.78;5023665;28;45775;-59
2022/12/08 01:55:40;;;;;;;;;50.75;40.25;;;;;8.37;61.93;100904.34;5022693;28;45312;-61
2022/12/08 01:58:13;;;;;;;;;54.75;40.00;;;;;8.33;62.09;100896.19;5026087;28;45196;-62
2022/12/08 02:00:39;;;;;;;;;54.00;41.00;;;;;8.17;62.91;100889.41;5029996;28;45014;-63
2022/12/08 02:03:13;;;;;;;;;52.75;42.25;;;;;8.16;62.71;100884.91;5024989;28;46526;-60
2022/12/08 02:05:39;;;;;;;;;57.00;43.00;;;;;8.24;62.66;100902.97;5027264;28;45116;-61
2022/12/08 02:08:08;;;;;;;;;52.25;40.00;;;;;8.14;62.27;100874.22;5028782;28;45104;-62
2022/12/08 02:10:36;;;;;;;;;50.00;40.50;;;;;8.17;61.81;100887.63;5028644;28;45083;-61
2022/12/08 02:13:04;;;;;;;;;52.50;40.00;;;;;8.14;62.90;100884.84;5023777;28;45209;-63
2022/12/08 02:15:42;;;;;;;;;54.50;40.50;;;;;8.12;62.85;100887.44;5020558;28;45063;-60
2022/12/08 02:18:21;;;;;;;;;55.00;40.75;;;;;8.12;62.45;100881.22;5027772;28;45427;-61
2022/12/08 02:20:55;;;;;;;;;47.75;38.25;;;;;8.05;63.19;100876.50;5030386;28;45668;-60
2022/12/08 02:23:43;;;;;;;;;63.00;43.75;;;;;7.96;62.94;100855.78;5027693;28;45486;-60
2022/12/08 02:26:46;;;;;;;;;49.00;39.50;;;;;8.18;63.15;100888.53;5024717;28;45295;-60
2022/12/08 02:29:22;;;;;;;;;60.50;40.25;;;;;8.23;62.92;100889.59;5022113;28;45307;-62
2022/12/08 02:32:28;;;;;;;;;43.75;36.50;;;;;8.21;62.34;100886.88;5033857;28;45049;-62
2022/12/08 02:35:04;;;;;;;;;53.50;40.25;;;;;8.28;62.33;100883.63;5013968;28;46560;-62
2022/12/08 02:37:35;;;;;;;;;47.00;36.50;;;;;8.20;62.47;100869.13;5032096;28;45612;-60
2022/12/08 02:40:15;;;;;;;;;40.25;34.75;;;;;8.17;62.29;100871.66;5015457;28;45200;-61
2022/12/08 02:42:54;;;;;;;;;49.25;38.25;;;;;8.17;61.80;100873.44;5015634;28;45319;-61
2022/12/08 02:45:34;;;;;;;;;43.25;32.75;;;;;8.01;61.72;100863.94;5022889;28;45523;-61
2022/12/08 02:48:00;;;;;;;;;46.25;36.25;;;;;7.98;61.88;100859.41;5025786;28;45441;-60
2022/12/08 02:50:28;;;;;;;;;50.75;36.25;;;;;7.98;62.80;100866.47;5014942;28;45491;-61
2022/12/08 02:52:54;;;;;;;;;51.75;37.25;;;;;7.86;62.59;100850.97;5019587;28;45935;-62
2022/12/08 02:55:32;;;;;;;;;47.50;38.00;;;;;7.90;62.50;100872.44;5020452;28;47034;-61
2022/12/08 02:58:29;;;;;;;;;59.50;43.00;;;;;7.86;62.07;100864.25;5022014;28;45399;-60
2022/12/08 03:01:03;;;;;;;;;43.75;37.50;;;;;7.80;62.86;100866.66;5020221;28;45116;-59
2022/12/08 03:03:34;;;;;;;;;51.50;37.75;;;;;7.77;62.73;100863.88;5030804;28;45148;-60
2022/12/08 03:06:17;;;;;;;;;41.00;34.50;;;;;7.76;62.91;100855.00;5031414;28;46302;-61
2022/12/08 03:09:02;;;;;;;;;53.50;36.50;;;;;7.71;62.56;100853.94;5029844;28;44859;-61
2022/12/08 03:11:38;;;;;;;;;51.00;40.00;;;;;7.68;62.67;100854.69;5028463;28;45056;-60
2022/12/08 03:14:07;;;;;;;;;55.75;37.25;;;;;7.68;62.99;100849.38;5029673;28;44946;-60
2022/12/08 03:16:37;;;;;;;;;50.75;35.75;;;;;7.64;62.46;100852.78;5028395;28;45290;-60
2022/12/08 03:19:12;;;;;;;;;49.75;38.75;;;;;7.63;63.06;100845.63;5028849;28;45193;-59
2022/12/08 03:21:39;;;;;;;;;55.00;41.00;;;;;7.52;63.25;100834.59;5028280;28;45125;-61
2022/12/08 03:24:06;;;;;;;;;60.50;43.00;;;;;7.51;63.19;100838.06;5031392;28;45223;-59
2022/12/08 03:26:50;;;;;;;;;45.25;37.75;;;;;7.50;63.52;100835.34;5030171;28;45426;-59
2022/12/08 03:29:15;;;;;;;;;56.75;42.50;;;;;7.46;64.02;100818.38;5026850;28;44963;-60
2022/12/08 03:31:49;;;;;;;;;46.00;35.50;;;;;7.52;63.78;100828.34;5032575;28;45078;-59
2022/12/08 03:34:17;;;;;;;;;47.25;38.75;;;;;7.51;63.58;100826.56;5023985;28;45183;-60
2022/12/08 03:36:44;;;;;;;;;52.00;40.75;;;;;7.44;63.75;100819.16;5028694;28;45697;-62
2022/12/08 03:39:09;;;;;;;;;50.75;38.50;;;;;7.33;64.17;100813.41;5024097;28;45101;-61
2022/12/08 03:41:34;;;;;;;;;46.75;41.00;;;;;7.32;64.64;100819.56;5029021;28;45030;-61
2022/12/08 03:44:00;;;;;;;;;48.00;39.75;;;;;7.30;63.85;100803.56;5025745;28;45109;-60
2022/12/08 03:46:28;;;;;;;;;55.00;42.00;;;;;7.29;64.15;100815.06;5024712;28;47112;-60
2022/12/08 03:48:54;;;;;;;;;54.75;40.00;;;;;7.22;63.46;100797.03;5033211;28;45002;-60
2022/12/08 03:51:20;;;;;;;;;49.25;37.25;;;;;7.25;64.06;100805.13;5029042;28;45264;-59
2022/12/08 03:53:46;;;;;;;;;50.25;39.75;;;;;7.19;64.07;100813.78;5022155;28;44988;-60
2022/12/08 03:56:23;;;;;;;;;47.75;36.25;;;;;7.12;64.61;100801.06;5027477;28;45757;-60
2022/12/08 03:58:48;;;;;;;;;52.50;40.25;;;;;7.05;64.12;100795.44;5024310;28;44947;-61
2022/12/08 04:01:14;;;;;;;;;53.75;39.50;;;;;7.03;64.66;100792.72;5025833;28;45270;-59
2022/12/08 04:03:39;;;;;;;;;43.00;34.50;;;;;7.00;64.82;100781.97;5032641;28;46117;-60
2022/12/08 04:06:08;;;;;;;;;41.50;32.50;;;;;7.14;64.68;100799.41;5031346;28;45046;-60
2022/12/08 04:08:34;;;;;;;;;50.00;35.25;;;;;7.16;63.87;100797.69;5029095;28;45119;-61
2022/12/08 04:10:59;;;;;;;;;47.00;39.50;;;;;7.19;63.66;100796.91;5024927;28;45430;-60
2022/12/08 04:13:24;;;;;;;;;47.75;35.25;;;;;7.26;64.43;100800.72;5022902;28;45283;-61
2022/12/08 04:15:50;;;;;;;;;43.25;36.50;;;;;7.29;63.95;100790.22;5020811;28;45429;-60
2022/12/08 04:18:15;;;;;;;;;37.00;35.00;;;;;7.27;63.34;100786.59;5022368;28;45443;-61
2022/12/08 04:20:42;;;;;;;;;42.75;33.25;;;;;7.28;63.21;100785.75;5026897;28;44760;-60
2022/12/08 04:23:09;;;;;;;;;48.50;37.25;;;;;7.41;63.70;100797.75;5026410;28;45282;-61
2022/12/08 04:25:35;;;;;;;;;48.00;38.00;;;;;7.49;63.57;100785.69;5016975;28;47683;-63
2022/12/08 04:28:01;;;;;;;;;53.00;38.75;;;;;7.49;62.79;100785.69;5010437;28;45509;-59
2022/12/08 04:30:26;;;;;;;;;49.25;36.25;;;;;7.41;63.41;100787.13;5012766;28;45590;-61
2022/12/08 04:32:51;;;;;;;;;49.00;38.25;;;;;7.32;63.52;100766.41;5013683;28;45279;-60
2022/12/08 04:35:17;;;;;;;;;52.00;37.50;;;;;7.36;63.36;100779.00;5015890;28;46264;-61
2022/12/08 04:37:43;;;;;;;;;47.75;37.50;;;;;7.23;63.17;100759.00;5014044;28;45685;-61
2022/12/08 04:40:09;;;;;;;;;43.00;35.00;;;;;7.18;62.75;100758.81;5010255;28;45373;-61
2022/12/08 04:42:35;;;;;;;;;46.75;35.75;;;;;7.27;63.01;100768.88;5013886;28;45595;-61
2022/12/08 04:45:00;;;;;;;;;38.25;32.00;;;;;7.19;63.59;100760.63;5017075;28;46694;-60
2022/12/08 04:47:26;;;;;;;;;50.50;34.75;;;;;7.14;63.62;100745.31;5015312;28;45445;-61
2022/12/08 04:49:51;;;;;;;;;56.50;35.75;;;;;7.08;63.64;100740.69;5009995;28;45521;-61
2022/12/08 04:52:16;;;;;;;;;38.25;33.25;;;;;7.00;63.43;100736.81;5010767;28;45431;-59
2022/12/08 04:54:42;;;;;;;;;52.00;37.00;;;;;7.18;63.51;100755.25;5013226;28;45474;-60
2022/12/08 04:57:07;;;;;;;;;42.50;33.50;;;;;7.20;63.88;100756.22;5010366;28;45513;-60
2022/12/08 04:59:32;;;;;;;;;53.00;35.00;;;;;7.20;63.82;100749.13;5018939;28;45229;-61
2022/12/08 05:01:58;;;;;;;;;29.00;22.75;;;;;7.24;63.24;100749.25;5010050;28;45689;-62
2022/12/08 05:04:23;;;;;;;;;46.25;37.25;;;;;7.24;63.25;100739.53;5011697;28;46415;-61
2022/12/08 05:06:48;;;;;;;;;44.00;35.25;;;;;7.26;63.10;100747.56;5018877;28;45316;-60
2022/12/08 05:09:14;;;;;;;;;36.25;18.50;;;;;7.27;62.89;100741.41;5019863;28;53793;-60
2022/12/08 05:11:40;;;;;;;;;39.50;32.50;;;;;7.32;62.50;100750.47;5019031;28;45440;-62
2022/12/08 05:14:10;;;;;;;;;43.75;37.25;;;;;7.35;62.62;100747.94;5010683;28;45531;-61
2022/12/08 05:16:36;;;;;;;;;47.50;35.00;;;;;7.26;62.47;100728.97;5014330;28;45469;-63
2022/12/08 05:19:02;;;;;;;;;41.50;37.50;;;;;7.35;62.68;100750.59;5014488;28;45772;-61
2022/12/08 05:21:27;;;;;;;;;36.75;30.75;;;;;7.33;62.40;100736.34;5010396;28;45647;-60
2022/12/08 05:23:52;;;;;;;;;46.75;35.00;;;;;7.17;62.66;100708.25;5008916;28;46483;-61
2022/12/08 05:26:18;;;;;;;;;40.50;34.00;;;;;7.27;63.08;100718.38;5007891;28;45400;-61
2022/12/08 05:28:43;;;;;;;;;37.25;35.00;;;;;7.34;63.15;100727.50;5011658;28;45941;-61
2022/12/08 05:31:13;;;;;;;;;46.50;33.00;;;;;7.26;62.91;100711.28;5010984;28;45308;-61
2022/12/08 05:33:39;;;;;;;;;38.50;34.75;;;;;7.40;62.26;100737.50;5013129;28;45622;-61
2022/12/08 05:36:05;;;;;;;;;42.75;30.00;;;;;7.28;62.22;100717.56;5012220;28;45554;-63
2022/12/08 05:38:30;;;;;;;;;38.00;34.50;;;;;7.36;62.63;100732.06;5007693;28;45417;-61
2022/12/08 05:40:55;;;;;;;;;42.50;32.25;;;;;7.22;62.94;100724.38;5006145;28;45398;-60
2022/12/08 05:43:21;;;;;;;;;33.25;29.50;;;;;7.19;63.62;100728.75;5006582;28;46431;-61
2022/12/08 05:45:46;;;;;;;;;45.00;34.50;;;;;7.21;63.59;100736.78;5009138;28;45524;-61
2022/12/08 05:48:11;;;;;;;;;42.00;35.25;;;;;7.15;63.65;100731.22;5007809;28;45644;-61
2022/12/08 05:50:37;;;;;;;;;57.00;37.75;;;;;7.04;63.96;100719.25;5003721;28;45586;-61
2022/12/08 05:53:02;;;;;;;;;46.25;37.25;;;;;7.02;64.25;100740.44;5008314;28;45366;-61
2022/12/08 05:55:28;;;;;;;;;47.00;35.50;;;;;7.00;64.66;100744.78;5016944;28;45261;-61
2022/12/08 05:57:53;;;;;;;;;51.50;34.25;;;;;6.91;64.84;100734.66;5037355;28;45250;-60
2022/12/08 06:00:19;;;;;;;;;49.00;37.50;;;;;7.06;64.48;100739.72;5028751;28;45224;-60
2022/12/08 06:02:45;;;;;;;;;50.75;38.00;;;;;7.05;64.45;100737.91;5024746;28;45909;-61
2022/12/08 06:05:10;;;;;;;;;41.50;34.75;;;;;7.07;64.17;100733.56;5031387;28;45061;-60
2022/12/08 06:07:35;;;;;;;;;45.50;35.00;;;;;7.14;64.66;100734.69;5029176;28;47317;-60
2022/12/08 06:10:01;;;;;;;;;51.50;38.00;;;;;7.11;64.66;100737.22;5030210;28;45205;-59
2022/12/08 06:12:26;;;;;;;;;48.50;36.00;;;;;7.09;64.29;100729.19;5017346;28;45520;-60
2022/12/08 06:14:51;;;;;;;;;46.75;35.00;;;;;7.03;64.72;100712.09;5009066;28;45491;-61
2022/12/08 06:17:17;;;;;;;;;53.00;34.75;;;;;6.98;64.69;100712.84;5007065;28;46737;-60
2022/12/08 06:19:42;;;;;;;;;44.50;37.00;;;;;6.92;64.75;100709.94;5010417;28;45474;-60
2022/12/08 06:22:07;;;;;;;;;46.75;36.50;;;;;6.89;64.83;100709.81;5013232;28;46276;-61
2022/12/08 06:24:33;;;;;;;;;53.00;38.00;;;;;6.97;64.72;100715.44;5009575;28;56294;-59
2022/12/08 06:26:58;;;;;;;;;44.25;33.00;;;;;6.83;64.31;100722.84;5017966;28;45490;-61
2022/12/08 06:29:23;;;;;;;;;34.75;29.75;;;;;6.75;64.67;100717.22;5002181;28;45508;-60
2022/12/08 06:31:49;;;;;;;;;37.25;34.75;;;;;6.78;65.31;100724.38;5014864;28;46364;-63
2022/12/08 06:34:14;;;;;;;;;34.75;29.50;;;;;6.69;64.71;100714.31;5013973;28;45517;-60
2022/12/08 06:36:39;;;;;;;;;34.50;30.00;;;;;6.59;65.12;100710.34;5016520;28;45724;-60
2022/12/08 06:39:05;;;;;;;;;32.75;31.25;;;;;6.64;64.62;100719.41;5009701;28;45585;-60
2022/12/08 06:41:30;;;;;;;;;39.00;30.75;;;;;6.48;65.32;100703.69;5005188;28;46399;-61
2022/12/08 06:43:56;;;;;;;;;35.50;22.75;;;;;6.55;65.64;100715.47;5011603;28;45465;-63
2022/12/08 06:46:22;;;;;;;;;35.75;26.00;;;;;6.56;65.23;100706.69;5008264;28;45395;-61
2022/12/08 06:48:49;;;;;;;;;34.50;27.75;;;;;6.57;65.29;100708.50;5009388;28;45415;-62
2022/12/08 06:51:17;;;;;;;;;27.50;24.00;;;;;6.53;65.16;100707.44;5004539;28;45410;-60
2022/12/08 06:53:44;;;;;;;;;36.00;26.50;;;;;6.54;64.48;100708.38;5027098;28;45638;-62
2022/12/08 06:56:10;;;;;;;;;30.00;23.00;;;;;6.60;64.91;100712.19;5025071;28;45189;-61
2022/12/08 06:58:36;;;;;;;;;38.50;30.25;;;;;6.58;65.05;100712.94;5027775;28;45146;-62
2022/12/08 07:01:12;;;;;;;;;40.25;34.25;;;;;6.52;65.12;100697.69;5028207;28;45479;-63
2022/12/08 07:03:38;;;;;;;;;26.00;21.25;;;;;6.67;64.68;100707.13;5026705;28;45262;-60
2022/12/08 07:06:05;;;;;;;;;35.50;27.75;;;;;6.51;64.54;100677.28;5026111;28;45303;-60
2022/12/08 07:08:32;;;;;;;;;30.25;26.75;;;;;6.58;64.55;100678.44;5023785;28;45364;-62
2022/12/08 07:10:57;;;;;;;;;46.00;33.00;;;;;6.80;64.70;100710.34;5027081;28;45553;-59
2022/12/08 07:13:22;;;;;;;;;32.00;24.00;;;;;6.77;65.01;100694.28;5015682;28;46081;-62
2022/12/08 07:15:48;;;;;;;;;8.00;7.25;;;;;6.83;64.02;100710.47;5019507;28;45556;-60
2022/12/08 07:18:13;;;;;;;;;42.25;30.25;;;;;6.76;63.79;100700.44;5011832;28;45584;-60
2022/12/08 07:20:39;;;;;;;;;29.00;25.50;;;;;6.76;64.24;100707.50;5021017;28;46079;-61
2022/12/08 07:23:04;;;;;;;;;32.75;30.00;;;;;6.76;63.98;100702.19;5016106;28;45459;-61
2022/12/08 07:25:30;;;;;;;;;40.25;34.75;;;;;6.73;64.12;100700.34;5012106;28;45367;-62
2022/12/08 07:27:55;;;;;;;;;40.75;31.50;;;;;6.80;64.65;100707.69;5011500;28;45468;-61
2022/12/08 07:30:20;;;;;;;;;45.75;32.50;;;;;6.82;64.15;100706.00;5011094;28;45504;-61
2022/12/08 07:32:46;;;;;;;;;41.50;34.50;;;;;6.74;64.08;100687.94;5013196;28;45386;-61
2022/12/08 07:35:12;;;;;;;;;37.50;32.50;;;;;6.84;64.41;100708.72;5013819;28;45545;-63
2022/12/08 07:37:38;;;;;;;;;33.00;29.25;;;;;6.86;64.24;100707.03;5014012;28;45631;-62
2022/12/08 07:40:07;;;;;;;;;36.25;31.75;;;;;6.80;63.92;100710.34;5011210;28;45850;-61
2022/12/08 07:42:33;;;;;;;;;48.00;34.75;;;;;6.83;63.83;100715.78;5009294;28;45510;-64
2022/12/08 07:44:59;;;;;;;;;50.50;36.00;;;;;6.79;63.83;100700.56;5007079;28;45378;-62
2022/12/08 07:47:24;;;;;;;;;43.25;33.50;;;;;6.75;64.48;100701.28;5011517;28;45641;-62
2022/12/08 07:49:50;;;;;;;;;47.00;31.25;;;;;6.89;63.95;100722.19;5013745;28;45540;-63
2022/12/08 07:52:15;;;;;;;;;35.00;30.75;;;;;6.83;63.73;100704.28;5005118;28;45237;-62
2022/12/08 07:54:40;;;;;;;;;44.50;34.50;;;;;6.82;64.19;100697.13;5007542;28;45719;-60
2022/12/08 07:57:07;;;;;;;;;46.50;33.25;;;;;6.71;63.76;100687.81;5005514;28;45375;-62
2022/12/08 07:59:33;;;;;;;;;39.00;31.00;;;;;6.85;63.84;100701.66;5015396;28;45341;-64
2022/12/08 08:01:58;;;;;;;;;40.00;32.50;;;;;6.83;63.96;100693.66;5007905;28;45334;-62
2022/12/08 08:04:24;;;;;;;;;39.75;31.00;;;;;6.89;63.43;100706.25;5010572;28;45553;-61
2022/12/08 08:06:49;;;;;;;;;39.25;33.75;;;;;6.86;63.44;100703.47;5008400;28;45532;-60
2022/12/08 08:09:15;;;;;;;;;34.50;29.25;;;;;6.80;63.47;100702.38;5012812;28;45924;-60
2022/12/08 08:11:40;;;;;;;;;34.50;33.00;;;;;6.80;63.64;100697.06;5013693;28;45343;-61
2022/12/08 08:14:05;;;;;;;;;34.00;29.00;;;;;6.79;63.44;100687.28;5004198;28;45804;-60
2022/12/08 08:16:31;;;;;;;;;40.50;34.25;;;;;6.73;63.21;100681.75;5009549;28;45624;-61
2022/12/08 08:18:56;;;;;;;;;44.50;31.75;;;;;6.68;63.53;100675.31;5005890;28;46094;-61
2022/12/08 08:21:22;;;;;;;;;45.00;34.50;;;;;6.69;62.84;100670.94;5010261;28;45488;-62
2022/12/08 08:23:47;;;;;;;;;35.50;26.75;;;;;6.73;62.92;100672.84;5009550;28;45550;-62
2022/12/08 08:26:13;;;;;;;;;33.50;24.50;;;;;6.79;62.68;100684.63;5008253;28;45411;-62
2022/12/08 08:28:38;;;;;;;;;37.00;31.75;;;;;6.75;62.66;100674.75;5012390;28;46566;-64
2022/12/08 08:31:05;;;;;;;;;47.25;30.75;;;;;6.87;63.34;100694.66;5007778;28;49365;-59
2022/12/08 08:33:31;;;;;;;;;38.00;30.25;;;;;6.80;62.26;100675.81;5022701;28;45464;-63
2022/12/08 08:35:56;;;;;;;;;39.75;35.25;;;;;6.65;62.52;100664.59;5012933;28;45791;-61
2022/12/08 08:38:21;;;;;;;;;68.75;55.25;;;;;6.80;62.84;100701.47;5021891;28;45485;-61
2022/12/08 08:40:47;;;;;;;;;35.25;32.00;;;;;6.75;62.55;100682.69;5031403;28;45048;-62
2022/12/08 08:43:27;;;;;;;;;40.00;32.25;;;;;6.61;62.75;100649.38;5006018;28;45806;-60
2022/12/08 08:45:56;;;;;;;;;33.50;31.50;;;;;6.65;62.58;100656.63;5010013;28;45606;-61
2022/12/08 08:48:21;;;;;;;;;32.25;26.25;;;;;6.74;62.69;100672.91;5008378;28;45955;-63
2022/12/08 08:50:46;;;;;;;;;35.00;31.25;;;;;6.63;62.60;100656.56;5027306;28;45629;-61
2022/12/08 08:53:12;;;;;;;;;41.75;35.75;;;;;6.63;63.03;100645.94;5009735;28;45433;-61
2022/12/08 08:55:38;;;;;;;;;41.00;32.75;;;;;6.73;62.22;100667.53;5005116;28;45634;-62
2022/12/08 08:58:03;;;;;;;;;35.75;27.00;;;;;6.77;62.49;100675.69;5009469;28;45292;-62
2022/12/08 09:00:29;;;;;;;;;39.75;30.75;;;;;6.75;62.25;100677.41;5005058;28;45432;-60
2022/12/08 09:02:54;;;;;;;;;45.25;33.50;;;;;6.63;63.40;100651.25;5011708;28;45413;-61
2022/12/08 09:05:19;;;;;;;;;33.50;27.25;;;;;6.79;62.04;100675.75;5009389;28;45495;-61
2022/12/08 09:07:45;;;;;;;;;28.75;26.50;;;;;6.60;61.94;100640.50;5013801;28;47041;-60
2022/12/08 09:10:10;;;;;;;;;33.25;25.75;;;;;6.81;62.09;100674.06;5013136;28;45477;-62
2022/12/08 09:12:35;;;;;;;;;47.75;31.25;;;;;6.76;62.07;100657.03;5012829;28;45358;-61
2022/12/08 09:15:01;;;;;;;;;33.50;32.00;;;;;6.82;62.40;100652.88;5008579;28;45859;-62
2022/12/08 09:17:26;;;;;;;;;36.50;29.25;;;;;6.92;61.98;100655.91;5004171;28;46423;-60
2022/12/08 09:19:51;;;;;;;;;45.75;37.25;;;;;6.92;62.02;100651.50;5012752;28;45506;-60
2022/12/08 09:22:17;;;;;;;;;32.50;29.50;;;;;7.05;61.18;100670.59;5007676;28;46910;-61
2022/12/08 09:24:42;;;;;;;;;40.75;31.50;;;;;7.04;61.64;100666.13;5009270;28;45512;-61
2022/12/08 09:27:08;;;;;;;;;37.25;31.50;;;;;6.99;61.22;100661.50;5006097;28;45681;-61
2022/12/08 09:29:33;;;;;;;;;40.25;33.25;;;;;7.06;61.14;100662.69;5010582;28;45509;-61
2022/12/08 09:31:58;;;;;;;;;31.00;27.50;;;;;7.10;61.57;100669.03;5008456;28;45399;-60
2022/12/08 09:34:24;;;;;;;;;36.25;28.00;;;;;7.09;60.76;100664.53;5019767;28;45942;-62
2022/12/08 09:36:49;;;;;;;;;45.50;33.25;;;;;6.96;60.85;100657.84;5013212;28;45450;-61
2022/12/08 09:39:14;;;;;;;;;57.00;43.50;;;;;7.01;61.45;100670.47;5011980;28;45448;-61
2022/12/08 09:41:44;;;;;;;;;32.00;27.50;;;;;7.07;61.43;100666.25;5012901;28;45393;-62
2022/12/08 09:44:18;;;;;;;;;36.00;29.00;;;;;7.07;60.84;100663.59;5013105;28;45323;-62
2022/12/08 09:46:47;;;;;;;;;29.50;29.50;;;;;7.10;60.95;100666.38;5011610;28;45442;-62
2022/12/08 09:49:20;;;;;;;;;28.75;24.25;;;;;7.13;60.49;100658.53;5010488;28;46105;-62
2022/12/08 09:51:45;;;;;;;;;36.75;28.00;;;;;7.17;60.07;100656.00;5011923;28;45671;-62
2022/12/08 09:54:19;;;;;;;;;33.50;25.50;;;;;7.16;60.34;100650.63;5013208;28;45529;-62
2022/12/08 09:56:47;;;;;;;;;31.25;29.00;;;;;7.19;60.17;100653.41;5008461;28;46387;-61
2022/12/08 09:59:21;;;;;;;;;25.75;23.25;;;;;7.22;60.20;100644.66;5013580;28;45577;-62
2022/12/08 10:01:46;;;;;;;;;32.50;26.75;;;;;7.24;59.83;100640.31;5005846;28;45488;-60
2022/12/08 10:04:34;;;;;;;;;30.50;26.75;;;;;7.26;60.62;100641.28;5010592;28;45402;-62
2022/12/08 10:07:38;;;;;;;;;29.50;26.50;;;;;7.30;60.08;100643.22;5006054;28;46055;-63
2022/12/08 10:10:34;;;;;;;;;28.75;24.00;;;;;7.26;60.16;100636.88;5009731;28;45431;-60
2022/12/08 10:13:20;;;;;;;;;33.50;27.50;;;;;7.26;59.72;100638.63;5011420;28;45393;-61
2022/12/08 10:15:56;;;;;;;;;39.50;33.75;;;;;7.25;60.07;100637.72;5013782;28;45228;-62
2022/12/08 10:18:28;;;;;;;;;33.25;25.00;;;;;7.27;59.62;100641.31;5005723;28;45527;-61
2022/12/08 10:21:09;;;;;;;;;32.50;21.75;;;;;7.30;59.87;100629.94;5006976;28;45243;-61
2022/12/08 10:23:37;;;;;;;;;36.75;27.25;;;;;7.28;59.58;100626.31;5008223;28;45762;-62
2022/12/08 10:26:06;;;;;;;;;30.50;24.00;;;;;7.27;59.79;100621.84;5010716;28;45501;-60
2022/12/08 10:28:33;;;;;;;;;43.50;35.25;;;;;7.27;59.69;100611.22;5002705;28;45441;-59
2022/12/08 10:30:58;;;;;;;;;29.00;29.00;;;;;7.25;59.81;100591.66;5006634;28;46104;-61
2022/12/08 10:33:24;;;;;;;;;61.25;45.50;;;;;7.38;59.33;100608.09;5005195;28;45632;-62
2022/12/08 10:35:52;;;;;;;;;57.50;43.00;;;;;7.43;58.95;100605.59;5010490;28;45636;-61
2022/12/08 10:38:21;;;;;;;;;29.75;28.25;;;;;7.34;59.19;100581.34;5003160;28;47340;-61
2022/12/08 10:40:50;;;;;;;;;41.25;34.00;;;;;7.41;59.19;100598.41;5014775;28;45395;-61
2022/12/08 10:43:24;;;;;;;;;43.00;28.75;;;;;7.36;59.31;100592.97;5014045;28;45519;-62
2022/12/08 10:45:51;;;;;;;;;22.00;22.00;;;;;7.40;58.62;100589.53;5016779;28;45880;-62
2022/12/08 10:48:21;;;;;;;;;23.00;17.50;;;;;7.31;59.66;100587.47;5014816;28;45545;-59
2022/12/08 10:50:49;;;;;;;;;33.25;25.00;;;;;7.35;59.75;100584.06;5010251;28;45376;-62
2022/12/08 10:53:19;;;;;;;;;40.00;26.00;;;;;7.41;59.00;100586.06;5011116;28;45326;-61
2022/12/08 10:55:47;;;;;;;;;35.50;29.00;;;;;7.24;58.65;100552.63;5012213;28;45364;-60
2022/12/08 10:58:24;;;;;;;;;22.75;22.00;;;;;7.40;58.83;100573.59;5012681;28;46542;-61
2022/12/08 11:00:54;;;;;;;;;34.50;24.00;;;;;7.36;59.13;100567.28;5003210;28;45726;-60
2022/12/08 11:03:28;;;;;;;;;34.00;32.00;;;;;7.41;58.65;100558.53;5012318;28;45567;-61
2022/12/08 11:05:59;;;;;;;;;34.00;30.25;;;;;7.48;58.49;100565.91;5014872;28;45510;-62
2022/12/08 11:08:27;;;;;;;;;34.00;25.00;;;;;7.48;58.55;100557.94;5014449;28;45502;-63
2022/12/08 11:10:53;;;;;;;;;53.00;40.75;;;;;7.45;59.09;100557.81;5015780;28;45434;-62
2022/12/08 11:13:26;;;;;;;;;31.50;28.00;;;;;7.53;58.76;100554.56;5008497;28;45326;-63
2022/12/08 11:15:54;;;;;;;;;32.00;28.00;;;;;7.48;58.52;100537.56;5004619;28;45313;-61
2022/12/08 11:18:21;;;;;;;;;41.25;32.00;;;;;7.57;58.42;100551.19;5003653;28;46432;-62
2022/12/08 11:20:54;;;;;;;;;26.75;24.50;;;;;7.60;58.61;100544.16;5005742;28;45336;-61
2022/12/08 11:23:23;;;;;;;;;41.25;34.50;;;;;7.57;58.88;100548.53;5007130;28;45381;-61
2022/12/08 11:25:50;;;;;;;;;40.25;32.50;;;;;7.60;58.28;100538.84;5006965;28;45579;-61